Time;durP1;ratioP1;P1;durP2;ratioP2;P2;SDS_P1;SDS_P2;PMS_P1;PMS_P2;Temp;Humidity;BMP_temperature;BMP_pressure;BME280_temperature;BME280_humidity;BME280_pressure;Samples;Min_cycle;Max_cycle;Signal;HPM_P1;HPM_P2
2019/09/10 00:01:36;;;;;;;2.41;2.21;;;;;;;21.27;53.29;100503.95;;;;-48
2019/09/10 00:04:36;;;;;;;2.60;2.40;;;;;;;21.28;53.26;100498.18;;;;-47
2019/09/10 00:07:36;;;;;;;2.43;2.23;;;;;;;21.27;53.33;100494.68;;;;-48
2019/09/10 00:10:36;;;;;;;2.39;2.20;;;;;;;21.26;53.27;100495.52;;;;-47
2019/09/10 00:13:36;;;;;;;2.47;2.15;;;;;;;21.25;53.36;100488.42;;;;-47
2019/09/10 00:16:36;;;;;;;2.31;2.11;;;;;;;21.26;53.33;100490.31;;;;-47
2019/09/10 00:19:36;;;;;;;2.25;2.05;;;;;;;21.25;53.31;100485.80;;;;-48
2019/09/10 00:22:36;;;;;;;2.15;2.00;;;;;;;21.25;53.25;100486.91;;;;-47
2019/09/10 00:25:36;;;;;;;2.33;2.13;;;;;;;21.25;53.32;100485.07;;;;-48
2019/09/10 00:28:36;;;;;;;3.11;2.41;;;;;;;21.24;53.24;100483.75;;;;-48
2019/09/10 00:31:36;;;;;;;2.39;2.19;;;;;;;21.24;53.31;100482.91;;;;-48
2019/09/10 00:34:36;;;;;;;2.78;2.09;;;;;;;21.23;53.27;100484.22;;;;-48
2019/09/10 00:37:36;;;;;;;2.45;2.25;;;;;;;21.24;53.31;100487.61;;;;-48
2019/09/10 00:40:36;;;;;;;2.33;2.13;;;;;;;21.23;53.34;100483.64;;;;-48
2019/09/10 00:43:36;;;;;;;2.63;1.95;;;;;;;21.23;53.30;100484.89;;;;-48
2019/09/10 00:46:36;;;;;;;2.80;2.24;;;;;;;21.23;53.26;100477.33;;;;-48
2019/09/10 00:49:36;;;;;;;2.34;2.14;;;;;;;21.22;53.30;100482.09;;;;-47
2019/09/10 00:52:36;;;;;;;2.39;2.16;;;;;;;21.22;53.24;100476.28;;;;-47
2019/09/10 00:55:36;;;;;;;2.31;2.12;;;;;;;21.22;53.33;100480.14;;;;-48
2019/09/10 00:58:36;;;;;;;2.38;2.18;;;;;;;21.21;53.32;100478.53;;;;-48
2019/09/10 01:01:36;;;;;;;2.52;2.32;;;;;;;21.21;53.25;100476.69;;;;-48
2019/09/10 01:04:36;;;;;;;2.54;2.33;;;;;;;21.21;53.32;100478.70;;;;-47
2019/09/10 01:07:36;;;;;;;2.51;2.29;;;;;;;21.21;53.24;100475.84;;;;-48
2019/09/10 01:10:36;;;;;;;2.27;2.07;;;;;;;21.20;53.29;100473.52;;;;-48
2019/09/10 01:13:36;;;;;;;2.29;2.09;;;;;;;21.21;53.27;100478.43;;;;-48
2019/09/10 01:16:36;;;;;;;2.23;2.03;;;;;;;21.20;53.29;100482.86;;;;-48
2019/09/10 01:19:36;;;;;;;2.41;2.21;;;;;;;21.20;53.32;100479.00;;;;-47
2019/09/10 01:22:36;;;;;;;2.29;2.09;;;;;;;21.19;53.30;100477.69;;;;-47
2019/09/10 01:25:36;;;;;;;2.67;2.36;;;;;;;21.19;53.29;100478.52;;;;-48
2019/09/10 01:28:36;;;;;;;2.40;2.20;;;;;;;21.18;53.30;100480.44;;;;-48
2019/09/10 01:31:36;;;;;;;2.42;2.22;;;;;;;21.18;53.29;100482.22;;;;-47
2019/09/10 01:34:36;;;;;;;2.36;2.16;;;;;;;21.18;53.26;100483.39;;;;-47
2019/09/10 01:37:36;;;;;;;2.41;2.21;;;;;;;21.19;53.29;100489.94;;;;-48
2019/09/10 01:40:36;;;;;;;2.51;2.31;;;;;;;21.18;53.26;100489.23;;;;-48
2019/09/10 01:43:36;;;;;;;2.41;2.21;;;;;;;21.17;53.27;100489.97;;;;-47
2019/09/10 01:46:36;;;;;;;2.85;2.19;;;;;;;21.17;53.28;100494.84;;;;-47
2019/09/10 01:49:36;;;;;;;2.29;2.09;;;;;;;21.17;53.27;100490.20;;;;-48
2019/09/10 01:52:36;;;;;;;2.56;2.25;;;;;;;21.17;53.26;100489.70;;;;-48
2019/09/10 01:55:36;;;;;;;2.21;2.02;;;;;;;21.17;53.32;100488.73;;;;-47
2019/09/10 01:58:36;;;;;;;2.30;2.10;;;;;;;21.17;53.25;100488.69;;;;-47
2019/09/10 02:01:36;;;;;;;2.51;2.31;;;;;;;21.17;53.25;100490.03;;;;-47
2019/09/10 02:04:36;;;;;;;2.37;2.17;;;;;;;21.16;53.27;100492.34;;;;-48
2019/09/10 02:07:36;;;;;;;2.50;2.30;;;;;;;21.16;53.23;100495.47;;;;-47
2019/09/10 02:10:36;;;;;;;2.24;2.06;;;;;;;21.15;53.28;100496.28;;;;-48
2019/09/10 02:13:36;;;;;;;2.12;2.02;;;;;;;21.15;53.25;100494.42;;;;-47
2019/09/10 02:16:36;;;;;;;2.40;2.20;;;;;;;21.15;53.24;100496.38;;;;-48
2019/09/10 02:19:36;;;;;;;2.30;2.14;;;;;;;21.15;53.24;100494.66;;;;-48
2019/09/10 02:22:36;;;;;;;2.41;2.21;;;;;;;21.14;53.24;100495.16;;;;-47
2019/09/10 02:25:36;;;;;;;2.43;2.23;;;;;;;21.14;53.23;100495.40;;;;-47
2019/09/10 02:28:36;;;;;;;2.30;2.10;;;;;;;21.14;53.21;100491.80;;;;-48
2019/09/10 02:31:36;;;;;;;2.29;2.09;;;;;;;21.14;53.20;100491.88;;;;-48
2019/09/10 02:34:36;;;;;;;2.19;1.99;;;;;;;21.14;53.23;100491.30;;;;-47
2019/09/10 02:37:36;;;;;;;2.42;2.22;;;;;;;21.14;53.23;100490.26;;;;-48
2019/09/10 02:40:36;;;;;;;2.33;2.13;;;;;;;21.14;53.18;100492.94;;;;-48
2019/09/10 02:43:36;;;;;;;2.41;2.21;;;;;;;21.13;53.23;100497.04;;;;-48
2019/09/10 02:46:36;;;;;;;2.28;2.08;;;;;;;21.12;53.23;100494.98;;;;-48
2019/09/10 02:49:36;;;;;;;2.25;2.10;;;;;;;21.12;53.19;100491.80;;;;-47
2019/09/10 02:52:36;;;;;;;2.27;2.08;;;;;;;21.12;53.19;100489.17;;;;-48
2019/09/10 02:55:36;;;;;;;2.21;2.01;;;;;;;21.12;53.20;100490.38;;;;-48
2019/09/10 02:58:36;;;;;;;2.54;2.34;;;;;;;21.12;53.18;100485.98;;;;-48
2019/09/10 03:01:36;;;;;;;2.20;2.10;;;;;;;21.12;53.21;100490.55;;;;-48
2019/09/10 03:04:36;;;;;;;2.45;2.25;;;;;;;21.12;53.19;100489.95;;;;-48
2019/09/10 03:07:36;;;;;;;2.39;2.19;;;;;;;21.11;53.20;100492.70;;;;-48
2019/09/10 03:10:36;;;;;;;2.38;2.18;;;;;;;21.11;53.21;100492.26;;;;-48
2019/09/10 03:13:36;;;;;;;2.28;2.08;;;;;;;21.10;53.18;100489.91;;;;-48
2019/09/10 03:16:36;;;;;;;2.41;2.23;;;;;;;21.10;53.22;100491.89;;;;-48
2019/09/10 03:19:36;;;;;;;2.20;2.00;;;;;;;21.11;53.22;100500.48;;;;-48
2019/09/10 03:22:36;;;;;;;2.30;2.10;;;;;;;21.11;53.17;100499.75;;;;-48
2019/09/10 03:25:36;;;;;;;2.28;2.09;;;;;;;21.11;53.18;100502.17;;;;-48
2019/09/10 03:28:36;;;;;;;2.19;2.09;;;;;;;21.11;53.16;100500.15;;;;-48
2019/09/10 03:31:36;;;;;;;2.27;2.09;;;;;;;21.10;53.19;100495.24;;;;-47
2019/09/10 03:34:36;;;;;;;2.97;2.28;;;;;;;21.09;53.21;100499.64;;;;-47
2019/09/10 03:37:36;;;;;;;2.31;2.11;;;;;;;21.09;53.20;100503.60;;;;-48
2019/09/10 03:40:36;;;;;;;2.19;2.09;;;;;;;21.08;53.15;100498.63;;;;-48
2019/09/10 03:43:36;;;;;;;2.40;2.20;;;;;;;21.08;53.17;100499.80;;;;-48
2019/09/10 03:46:36;;;;;;;2.27;2.09;;;;;;;21.09;53.14;100503.50;;;;-48
2019/09/10 03:49:36;;;;;;;2.30;2.10;;;;;;;21.08;53.18;100501.25;;;;-48
2019/09/10 03:52:36;;;;;;;2.11;2.01;;;;;;;21.08;53.21;100496.11;;;;-48
2019/09/10 03:55:36;;;;;;;2.25;2.05;;;;;;;21.08;53.18;100498.59;;;;-47
2019/09/10 03:58:36;;;;;;;2.10;2.00;;;;;;;21.08;53.19;100493.89;;;;-48
2019/09/10 04:01:36;;;;;;;2.38;2.18;;;;;;;21.08;53.24;100499.09;;;;-48
2019/09/10 04:04:36;;;;;;;2.31;2.11;;;;;;;21.08;53.18;100501.48;;;;-48
2019/09/10 04:07:36;;;;;;;2.30;2.10;;;;;;;21.07;53.13;100499.33;;;;-47
2019/09/10 04:10:36;;;;;;;2.31;2.11;;;;;;;21.07;53.18;100495.23;;;;-48
2019/09/10 04:13:36;;;;;;;2.27;2.07;;;;;;;21.06;53.18;100493.95;;;;-48
2019/09/10 04:16:36;;;;;;;2.37;2.17;;;;;;;21.06;53.16;100490.73;;;;-47
2019/09/10 04:19:36;;;;;;;2.28;2.08;;;;;;;21.06;53.16;100497.81;;;;-48
2019/09/10 04:22:36;;;;;;;2.13;1.95;;;;;;;21.05;53.16;100499.28;;;;-48
2019/09/10 04:25:36;;;;;;;1.97;1.87;;;;;;;21.06;53.15;100501.30;;;;-48
2019/09/10 04:28:36;;;;;;;2.29;2.11;;;;;;;21.06;53.17;100501.30;;;;-48
2019/09/10 04:31:36;;;;;;;2.19;2.03;;;;;;;21.05;53.17;100506.57;;;;-48
2019/09/10 04:34:36;;;;;;;2.20;2.00;;;;;;;21.05;53.15;100508.19;;;;-48
2019/09/10 04:37:36;;;;;;;2.28;2.08;;;;;;;21.05;53.13;100508.89;;;;-47
2019/09/10 04:40:36;;;;;;;2.19;2.09;;;;;;;21.05;53.15;100511.23;;;;-47
2019/09/10 04:43:36;;;;;;;2.16;2.06;;;;;;;21.03;53.14;100512.14;;;;-47
2019/09/10 04:46:36;;;;;;;2.10;2.00;;;;;;;21.03;53.12;100513.65;;;;-48
2019/09/10 04:49:36;;;;;;;2.17;2.07;;;;;;;21.04;53.13;100514.70;;;;-48
2019/09/10 04:52:36;;;;;;;2.30;2.10;;;;;;;21.04;53.15;100518.59;;;;-47
2019/09/10 04:55:36;;;;;;;2.30;2.10;;;;;;;21.04;53.13;100524.50;;;;-48
2019/09/10 04:58:36;;;;;;;2.10;2.00;;;;;;;21.04;53.11;100528.70;;;;-47
2019/09/10 05:01:36;;;;;;;2.01;1.91;;;;;;;21.03;53.12;100528.66;;;;-48
2019/09/10 05:04:36;;;;;;;2.29;2.09;;;;;;;21.02;53.15;100525.36;;;;-48
2019/09/10 05:07:36;;;;;;;2.01;1.91;;;;;;;21.03;53.15;100528.82;;;;-48
2019/09/10 05:10:36;;;;;;;2.30;2.10;;;;;;;21.02;53.10;100526.84;;;;-47
2019/09/10 05:13:36;;;;;;;2.09;1.99;;;;;;;21.03;53.11;100531.52;;;;-47
2019/09/10 05:16:36;;;;;;;2.36;2.16;;;;;;;21.02;53.13;100535.77;;;;-47
2019/09/10 05:19:36;;;;;;;2.01;1.91;;;;;;;21.02;53.13;100538.09;;;;-47
2019/09/10 05:22:36;;;;;;;2.09;1.99;;;;;;;21.03;53.12;100539.91;;;;-48
2019/09/10 05:25:36;;;;;;;2.00;1.90;;;;;;;21.03;53.12;100546.02;;;;-48
2019/09/10 05:28:36;;;;;;;2.27;2.07;;;;;;;21.02;53.12;100545.41;;;;-47
2019/09/10 05:31:36;;;;;;;2.15;2.05;;;;;;;21.01;53.11;100549.40;;;;-48
2019/09/10 05:34:36;;;;;;;2.12;1.99;;;;;;;21.01;53.08;100548.63;;;;-47
2019/09/10 05:37:36;;;;;;;2.21;2.01;;;;;;;21.01;53.18;100558.41;;;;-47
2019/09/10 05:40:36;;;;;;;2.02;1.92;;;;;;;21.00;53.15;100562.36;;;;-47
2019/09/10 05:43:36;;;;;;;2.30;2.10;;;;;;;21.00;53.16;100562.29;;;;-48
2019/09/10 05:46:36;;;;;;;2.07;1.90;;;;;;;21.00;53.14;100565.04;;;;-48
2019/09/10 05:49:36;;;;;;;2.07;1.97;;;;;;;21.00;53.16;100565.30;;;;-48
2019/09/10 05:52:36;;;;;;;2.10;2.00;;;;;;;21.00;53.17;100566.59;;;;-48
2019/09/10 05:55:36;;;;;;;1.98;1.88;;;;;;;21.00;53.18;100565.72;;;;-47
2019/09/10 05:58:36;;;;;;;1.91;1.81;;;;;;;21.00;53.16;100568.73;;;;-47
2019/09/10 06:01:36;;;;;;;1.86;1.76;;;;;;;20.99;53.14;100578.20;;;;-48
2019/09/10 06:04:36;;;;;;;1.90;1.80;;;;;;;21.00;53.19;100578.14;;;;-48
2019/09/10 06:07:36;;;;;;;1.80;1.70;;;;;;;20.99;53.18;100585.36;;;;-48
2019/09/10 06:10:36;;;;;;;1.92;1.82;;;;;;;21.00;53.17;100592.67;;;;-48
2019/09/10 06:13:36;;;;;;;2.22;1.92;;;;;;;21.00;53.18;100595.94;;;;-48
2019/09/10 06:16:36;;;;;;;2.04;1.89;;;;;;;21.00;53.15;100604.27;;;;-48
2019/09/10 06:19:36;;;;;;;1.85;1.75;;;;;;;20.99;53.15;100601.27;;;;-48
2019/09/10 06:22:36;;;;;;;1.95;1.85;;;;;;;20.99;53.17;100606.23;;;;-47
2019/09/10 06:25:36;;;;;;;1.97;1.87;;;;;;;20.99;53.24;100609.93;;;;-47
2019/09/10 06:28:36;;;;;;;1.95;1.85;;;;;;;20.98;53.23;100612.02;;;;-48
2019/09/10 06:31:36;;;;;;;2.00;1.90;;;;;;;20.98;53.21;100613.35;;;;-47
2019/09/10 06:34:36;;;;;;;2.02;1.92;;;;;;;20.98;53.17;100615.54;;;;-47
2019/09/10 06:37:36;;;;;;;1.95;1.85;;;;;;;20.99;53.16;100619.84;;;;-47
2019/09/10 06:40:36;;;;;;;1.99;1.89;;;;;;;20.99;53.19;100623.70;;;;-47
2019/09/10 06:43:36;;;;;;;2.07;1.89;;;;;;;20.98;53.27;100626.17;;;;-47
2019/09/10 06:46:36;;;;;;;1.91;1.81;;;;;;;20.98;53.21;100624.33;;;;-48
2019/09/10 06:49:36;;;;;;;1.86;1.76;;;;;;;20.99;53.26;100627.13;;;;-47
2019/09/10 06:52:36;;;;;;;1.76;1.66;;;;;;;20.98;53.24;100628.02;;;;-48
2019/09/10 06:55:36;;;;;;;2.03;1.86;;;;;;;20.98;53.25;100634.64;;;;-48
2019/09/10 06:58:36;;;;;;;1.96;1.86;;;;;;;20.99;53.21;100635.62;;;;-48
2019/09/10 07:01:36;;;;;;;1.95;1.85;;;;;;;20.98;53.23;100633.63;;;;-48
2019/09/10 07:04:36;;;;;;;2.09;1.89;;;;;;;20.98;53.24;100629.54;;;;-48
2019/09/10 07:07:36;;;;;;;2.11;1.97;;;;;;;20.98;53.20;100636.53;;;;-47
2019/09/10 07:10:36;;;;;;;1.80;1.70;;;;;;;20.97;53.18;100636.48;;;;-48
2019/09/10 07:13:36;;;;;;;1.90;1.80;;;;;;;20.98;53.15;100641.80;;;;-48
2019/09/10 07:16:36;;;;;;;1.95;1.85;;;;;;;20.98;53.19;100640.55;;;;-48
2019/09/10 07:19:36;;;;;;;1.97;1.87;;;;;;;20.97;53.17;100640.01;;;;-47
2019/09/10 07:22:36;;;;;;;1.95;1.85;;;;;;;20.98;53.18;100643.08;;;;-47
2019/09/10 07:25:36;;;;;;;2.03;1.93;;;;;;;20.97;53.18;100643.37;;;;-48
2019/09/10 07:28:36;;;;;;;1.88;1.78;;;;;;;20.97;53.18;100640.07;;;;-47
2019/09/10 07:31:36;;;;;;;1.99;1.89;;;;;;;20.97;53.16;100633.02;;;;-48
2019/09/10 07:34:36;;;;;;;2.02;1.92;;;;;;;20.97;53.17;100631.84;;;;-47
2019/09/10 07:37:36;;;;;;;1.90;1.80;;;;;;;20.97;53.22;100638.16;;;;-48
2019/09/10 07:40:36;;;;;;;2.57;1.80;;;;;;;20.98;53.15;100641.02;;;;-47
2019/09/10 07:43:36;;;;;;;1.86;1.74;;;;;;;20.98;53.14;100634.57;;;;-48
2019/09/10 07:46:36;;;;;;;1.90;1.80;;;;;;;20.97;53.17;100635.70;;;;-47
2019/09/10 07:49:36;;;;;;;1.83;1.73;;;;;;;20.97;53.19;100637.72;;;;-47
2019/09/10 07:52:36;;;;;;;1.93;1.83;;;;;;;20.97;53.17;100639.73;;;;-48
2019/09/10 07:55:36;;;;;;;1.86;1.76;;;;;;;20.97;53.14;100640.48;;;;-48
2019/09/10 07:58:36;;;;;;;2.10;1.88;;;;;;;20.97;53.14;100644.27;;;;-47
2019/09/10 08:01:36;;;;;;;1.82;1.72;;;;;;;20.97;53.14;100651.48;;;;-48
2019/09/10 08:04:36;;;;;;;1.87;1.77;;;;;;;20.96;53.15;100649.88;;;;-47
2019/09/10 08:07:36;;;;;;;1.77;1.67;;;;;;;20.96;53.13;100655.25;;;;-47
2019/09/10 08:10:36;;;;;;;1.89;1.79;;;;;;;20.96;53.16;100651.95;;;;-49
2019/09/10 08:13:36;;;;;;;2.21;1.83;;;;;;;20.98;53.11;100649.79;;;;-58
2019/09/10 08:16:36;;;;;;;2.71;1.81;;;;;;;20.98;53.12;100654.89;;;;-47
2019/09/10 08:19:36;;;;;;;2.11;1.90;;;;;;;20.96;53.15;100649.50;;;;-48
2019/09/10 08:22:36;;;;;;;1.93;1.80;;;;;;;20.96;53.18;100651.79;;;;-47
2019/09/10 08:25:36;;;;;;;1.81;1.71;;;;;;;20.96;53.13;100650.34;;;;-58
2019/09/10 08:28:36;;;;;;;2.01;1.83;;;;;;;20.95;53.17;100656.88;;;;-48
2019/09/10 08:31:35;;;;;;;1.95;1.79;;;;;;;20.96;53.14;100659.51;;;;-47
2019/09/10 08:34:36;;;;;;;2.61;1.83;;;;;;;20.96;53.20;100658.73;;;;-47
2019/09/10 08:37:36;;;;;;;1.95;1.85;;;;;;;20.96;53.18;100658.77;;;;-47
2019/09/10 08:40:36;;;;;;;1.83;1.73;;;;;;;20.95;53.21;100662.16;;;;-55
2019/09/10 08:43:36;;;;;;;1.75;1.65;;;;;;;20.95;53.18;100664.00;;;;-47
2019/09/10 08:46:36;;;;;;;1.90;1.80;;;;;;;20.95;53.23;100670.28;;;;-47
2019/09/10 08:49:36;;;;;;;1.90;1.80;;;;;;;20.95;53.19;100673.47;;;;-47
2019/09/10 08:52:36;;;;;;;1.80;1.70;;;;;;;20.95;53.21;100678.61;;;;-47
2019/09/10 08:55:36;;;;;;;1.91;1.81;;;;;;;20.95;53.16;100685.48;;;;-55
2019/09/10 08:58:36;;;;;;;1.83;1.73;;;;;;;20.95;53.16;100694.73;;;;-54
2019/09/10 09:01:36;;;;;;;1.85;1.75;;;;;;;20.95;53.17;100698.66;;;;-48
2019/09/10 09:04:36;;;;;;;1.90;1.80;;;;;;;20.94;53.23;100696.12;;;;-48
2019/09/10 09:07:36;;;;;;;1.98;1.79;;;;;;;20.95;53.18;100698.92;;;;-48
2019/09/10 09:10:36;;;;;;;1.93;1.83;;;;;;;20.95;53.22;100704.87;;;;-47
2019/09/10 09:13:36;;;;;;;1.89;1.79;;;;;;;20.95;53.15;100711.85;;;;-58
2019/09/10 09:16:36;;;;;;;1.93;1.73;;;;;;;20.95;53.19;100715.88;;;;-59
2019/09/10 09:19:36;;;;;;;2.00;1.80;;;;;;;20.95;53.17;100722.42;;;;-47
2019/09/10 09:22:36;;;;;;;2.04;1.85;;;;;;;20.94;53.21;100717.02;;;;-48
2019/09/10 09:25:36;;;;;;;2.06;1.93;;;;;;;20.95;53.19;100717.23;;;;-48
2019/09/10 09:28:36;;;;;;;2.48;1.77;;;;;;;20.94;53.22;100716.95;;;;-48
2019/09/10 09:31:36;;;;;;;1.74;1.64;;;;;;;20.94;53.14;100716.27;;;;-47
2019/09/10 09:34:36;;;;;;;1.87;1.77;;;;;;;20.94;53.19;100716.61;;;;-48
2019/09/10 09:37:36;;;;;;;1.89;1.79;;;;;;;20.93;53.17;100710.42;;;;-48
2019/09/10 09:40:36;;;;;;;1.80;1.70;;;;;;;20.93;53.19;100710.53;;;;-48
2019/09/10 09:43:36;;;;;;;1.90;1.80;;;;;;;20.93;53.26;100707.23;;;;-47
2019/09/10 09:46:36;;;;;;;4.95;3.33;;;;;;;20.89;52.02;100706.12;;;;-51
2019/09/10 09:49:36;;;;;;;5.13;3.50;;;;;;;20.82;51.10;100707.09;;;;-51
2019/09/10 09:52:36;;;;;;;6.39;4.03;;;;;;;20.83;51.29;100705.33;;;;-50
2019/09/10 09:55:36;;;;;;;7.73;3.81;;;;;;;20.91;51.95;100705.06;;;;-51
2019/09/10 09:58:36;;;;;;;11.95;3.57;;;;;;;20.96;52.38;100705.25;;;;-54
2019/09/10 10:01:36;;;;;;;8.01;3.18;;;;;;;20.97;52.42;100706.05;;;;-54
2019/09/10 10:04:36;;;;;;;8.23;3.29;;;;;;;20.99;52.46;100703.45;;;;-54
2019/09/10 10:07:36;;;;;;;7.45;3.23;;;;;;;21.00;52.41;100698.30;;;;-52
2019/09/10 10:10:36;;;;;;;5.70;3.11;;;;;;;21.05;52.39;100703.61;;;;-55
2019/09/10 10:13:36;;;;;;;7.01;3.11;;;;;;;21.03;52.60;100700.50;;;;-54
2019/09/10 10:16:36;;;;;;;6.47;2.95;;;;;;;21.04;52.64;100698.77;;;;-49
2019/09/10 10:19:36;;;;;;;4.91;3.17;;;;;;;21.06;52.63;100695.80;;;;-49
2019/09/10 10:22:36;;;;;;;8.03;3.00;;;;;;;21.06;52.52;100685.85;;;;-48
2019/09/10 10:25:36;;;;;;;7.66;3.24;;;;;;;21.07;52.56;100689.31;;;;-49
2019/09/10 10:28:36;;;;;;;6.03;3.01;;;;;;;21.08;52.52;100685.03;;;;-49
2019/09/10 10:31:36;;;;;;;4.57;2.86;;;;;;;21.08;52.52;100680.66;;;;-49
2019/09/10 10:34:36;;;;;;;8.60;2.98;;;;;;;21.09;52.52;100680.33;;;;-49
2019/09/10 10:37:36;;;;;;;5.33;2.74;;;;;;;21.09;52.45;100677.61;;;;-49
2019/09/10 10:40:36;;;;;;;4.77;2.90;;;;;;;21.10;52.48;100678.06;;;;-49
2019/09/10 10:43:36;;;;;;;4.48;2.88;;;;;;;21.11;52.46;100681.59;;;;-49
2019/09/10 10:46:36;;;;;;;3.09;2.53;;;;;;;21.11;52.43;100681.63;;;;-50
2019/09/10 10:49:36;;;;;;;4.48;2.77;;;;;;;21.11;52.42;100678.17;;;;-58
2019/09/10 10:52:36;;;;;;;3.67;2.65;;;;;;;21.11;52.43;100675.98;;;;-58
2019/09/10 10:55:36;;;;;;;3.66;2.85;;;;;;;21.10;52.45;100676.61;;;;-58
2019/09/10 10:58:36;;;;;;;9.30;2.67;;;;;;;21.11;52.42;100678.40;;;;-58
2019/09/10 11:01:36;;;;;;;4.93;2.55;;;;;;;21.10;52.49;100674.13;;;;-58
2019/09/10 11:04:36;;;;;;;3.53;2.57;;;;;;;21.10;52.44;100679.67;;;;-58
2019/09/10 11:07:36;;;;;;;2.73;2.29;;;;;;;21.11;52.43;100673.12;;;;-59
2019/09/10 11:10:36;;;;;;;3.97;2.65;;;;;;;21.10;52.52;100672.69;;;;-58
2019/09/10 11:13:36;;;;;;;4.63;2.77;;;;;;;21.11;52.44;100676.98;;;;-58
2019/09/10 11:16:36;;;;;;;4.98;2.39;;;;;;;21.11;52.43;100669.94;;;;-58
2019/09/10 11:19:36;;;;;;;4.19;2.69;;;;;;;21.10;52.45;100668.76;;;;-58
2019/09/10 11:22:35;;;;;;;3.50;2.57;;;;;;;21.11;52.42;100667.08;;;;-59
2019/09/10 11:25:36;;;;;;;4.98;2.75;;;;;;;21.12;52.35;100674.91;;;;-58
2019/09/10 11:28:36;;;;;;;5.25;2.54;;;;;;;21.12;52.41;100674.17;;;;-58
2019/09/10 11:31:36;;;;;;;4.39;2.54;;;;;;;21.12;52.45;100671.39;;;;-59
2019/09/10 11:34:36;;;;;;;3.17;2.45;;;;;;;21.12;52.45;100676.80;;;;-58
2019/09/10 11:37:36;;;;;;;4.90;2.60;;;;;;;21.12;52.43;100675.35;;;;-58
2019/09/10 11:40:35;;;;;;;3.13;2.40;;;;;;;21.11;52.47;100676.25;;;;-58
2019/09/10 11:43:36;;;;;;;4.13;2.56;;;;;;;21.12;52.54;100676.36;;;;-52
2019/09/10 11:46:36;;;;;;;3.75;2.52;;;;;;;21.12;52.63;100673.10;;;;-61
2019/09/10 11:49:35;;;;;;;5.49;2.45;;;;;;;21.10;52.76;100679.30;;;;-61
2019/09/10 11:52:36;;;;;;;5.21;2.38;;;;;;;21.10;52.82;100677.69;;;;-56
2019/09/10 11:55:36;;;;;;;2.64;2.33;;;;;;;21.11;52.86;100677.43;;;;-60
2019/09/10 11:58:36;;;;;;;4.17;2.43;;;;;;;21.12;52.91;100674.58;;;;-60
2019/09/10 12:01:36;;;;;;;4.47;2.43;;;;;;;21.14;53.00;100674.59;;;;-59
2019/09/10 12:04:36;;;;;;;3.71;2.50;;;;;;;21.17;52.99;100676.39;;;;-60
2019/09/10 12:07:36;;;;;;;3.77;2.47;;;;;;;21.18;52.98;100674.98;;;;-61
2019/09/10 12:10:36;;;;;;;4.41;2.58;;;;;;;21.21;53.14;100673.94;;;;-53
2019/09/10 12:13:36;;;;;;;2.82;2.34;;;;;;;21.21;53.08;100668.83;;;;-56
2019/09/10 12:16:36;;;;;;;5.98;2.42;;;;;;;21.23;53.07;100672.51;;;;-59
2019/09/10 12:19:36;;;;;;;8.62;2.62;;;;;;;21.25;52.97;100673.87;;;;-59
2019/09/10 12:22:36;;;;;;;4.95;2.67;;;;;;;21.26;53.01;100668.77;;;;-52
2019/09/10 12:25:36;;;;;;;3.81;2.47;;;;;;;21.25;53.10;100673.37;;;;-55
2019/09/10 12:28:36;;;;;;;7.25;2.35;;;;;;;21.26;53.15;100676.83;;;;-56
2019/09/10 12:31:36;;;;;;;5.41;2.49;;;;;;;21.27;53.03;100676.13;;;;-59
2019/09/10 12:34:35;;;;;;;3.54;2.30;;;;;;;21.28;53.10;100676.31;;;;-57
2019/09/10 12:37:36;;;;;;;5.57;2.78;;;;;;;21.28;53.21;100673.55;;;;-47
2019/09/10 12:40:36;;;;;;;4.51;2.47;;;;;;;21.29;53.08;100680.64;;;;-50
2019/09/10 12:43:36;;;;;;;8.80;2.49;;;;;;;21.30;53.16;100681.27;;;;-51
2019/09/10 12:46:36;;;;;;;8.37;2.68;;;;;;;21.29;52.97;100683.34;;;;-46
2019/09/10 12:49:36;;;;;;;10.99;2.52;;;;;;;21.30;52.88;100684.12;;;;-44
2019/09/10 12:52:36;;;;;;;7.06;2.47;;;;;;;21.29;52.90;100688.31;;;;-49
2019/09/10 12:55:36;;;;;;;7.03;2.59;;;;;;;21.30;53.02;100691.88;;;;-50
2019/09/10 12:58:36;;;;;;;9.14;2.70;;;;;;;21.31;52.92;100687.45;;;;-50
2019/09/10 13:01:36;;;;;;;5.32;2.56;;;;;;;21.32;52.90;100687.26;;;;-49
2019/09/10 13:04:36;;;;;;;4.01;2.44;;;;;;;21.35;52.85;100689.36;;;;-48
2019/09/10 13:07:36;;;;;;;4.84;2.35;;;;;;;21.36;52.81;100690.84;;;;-47
2019/09/10 13:10:36;;;;;;;4.91;2.47;;;;;;;21.36;52.78;100688.63;;;;-50
2019/09/10 13:13:36;;;;;;;4.55;2.51;;;;;;;21.36;52.83;100686.55;;;;-57
2019/09/10 13:16:36;;;;;;;3.84;2.29;;;;;;;21.37;52.77;100688.88;;;;-56
2019/09/10 13:19:36;;;;;;;4.69;2.65;;;;;;;21.37;52.76;100687.97;;;;-47
2019/09/10 13:22:36;;;;;;;5.76;2.46;;;;;;;21.38;52.82;100688.03;;;;-51
2019/09/10 13:25:36;;;;;;;2.75;2.33;;;;;;;21.37;52.80;100683.42;;;;-46
2019/09/10 13:28:36;;;;;;;2.89;2.57;;;;;;;21.39;52.76;100681.02;;;;-53
2019/09/10 13:31:36;;;;;;;4.36;2.49;;;;;;;21.40;52.83;100679.38;;;;-45
2019/09/10 13:34:36;;;;;;;3.49;2.30;;;;;;;21.39;52.82;100683.38;;;;-54
2019/09/10 13:37:35;;;;;;;7.21;2.39;;;;;;;21.41;52.65;100681.41;;;;-49
2019/09/10 13:40:36;;;;;;;3.60;2.51;;;;;;;21.41;52.67;100681.20;;;;-49
2019/09/10 13:43:36;;;;;;;3.21;2.41;;;;;;;21.42;52.66;100680.57;;;;-50
2019/09/10 13:46:36;;;;;;;4.97;2.49;;;;;;;21.43;52.59;100676.75;;;;-59
2019/09/10 13:49:36;;;;;;;4.58;2.42;;;;;;;21.43;52.61;100675.23;;;;-55
2019/09/10 13:52:36;;;;;;;3.73;2.34;;;;;;;21.42;52.67;100674.59;;;;-54
2019/09/10 13:55:36;;;;;;;5.85;2.47;;;;;;;21.41;52.69;100673.30;;;;-60
2019/09/10 13:58:36;;;;;;;4.25;2.40;;;;;;;21.41;52.65;100675.76;;;;-56
2019/09/10 14:01:36;;;;;;;5.20;2.37;;;;;;;21.41;52.68;100676.73;;;;-57
2019/09/10 14:04:36;;;;;;;2.43;2.23;;;;;;;21.42;52.71;100679.39;;;;-58
2019/09/10 14:07:35;;;;;;;4.31;2.30;;;;;;;21.40;52.64;100673.47;;;;-52
2019/09/10 14:10:36;;;;;;;5.81;2.55;;;;;;;21.42;52.63;100672.73;;;;-52
2019/09/10 14:13:36;;;;;;;3.57;2.23;;;;;;;21.41;52.57;100675.09;;;;-51
2019/09/10 14:16:36;;;;;;;5.31;2.65;;;;;;;21.42;52.55;100673.55;;;;-52
2019/09/10 14:19:36;;;;;;;4.31;2.26;;;;;;;21.40;52.58;100670.41;;;;-53
2019/09/10 14:22:36;;;;;;;4.83;2.31;;;;;;;21.41;52.63;100675.02;;;;-52
2019/09/10 14:25:36;;;;;;;5.17;2.26;;;;;;;21.41;52.75;100676.53;;;;-57
2019/09/10 14:28:36;;;;;;;2.93;2.23;;;;;;;21.42;52.76;100675.42;;;;-54
2019/09/10 14:31:36;;;;;;;4.18;2.44;;;;;;;21.43;52.76;100677.02;;;;-53
2019/09/10 14:34:36;;;;;;;3.73;2.20;;;;;;;21.43;52.72;100680.95;;;;-60
2019/09/10 14:37:36;;;;;;;3.64;2.37;;;;;;;21.45;52.85;100686.00;;;;-58
2019/09/10 14:40:36;;;;;;;2.94;2.29;;;;;;;21.45;52.76;100678.17;;;;-47
2019/09/10 14:43:36;;;;;;;4.67;2.29;;;;;;;21.47;52.79;100679.19;;;;-51
2019/09/10 14:46:36;;;;;;;3.36;2.23;;;;;;;21.47;52.84;100673.72;;;;-49
2019/09/10 14:49:36;;;;;;;3.65;2.44;;;;;;;21.47;52.89;100666.59;;;;-59
2019/09/10 14:52:36;;;;;;;5.19;2.10;;;;;;;21.48;52.94;100660.64;;;;-56
2019/09/10 14:55:36;;;;;;;2.91;2.22;;;;;;;21.49;52.86;100657.26;;;;-59
2019/09/10 14:58:36;;;;;;;3.57;2.20;;;;;;;21.49;52.87;100656.82;;;;-59
2019/09/10 15:01:35;;;;;;;4.25;2.12;;;;;;;21.48;52.86;100662.94;;;;-58
2019/09/10 15:04:36;;;;;;;2.30;2.10;;;;;;;21.48;52.88;100665.86;;;;-57
2019/09/10 15:07:36;;;;;;;4.21;2.19;;;;;;;21.49;52.89;100665.22;;;;-55
2019/09/10 15:10:36;;;;;;;2.35;2.01;;;;;;;21.49;52.97;100667.51;;;;-58
2019/09/10 15:13:36;;;;;;;2.98;2.11;;;;;;;21.50;52.98;100675.01;;;;-53
2019/09/10 15:16:36;;;;;;;3.73;2.17;;;;;;;21.49;52.98;100681.69;;;;-58
2019/09/10 15:19:36;;;;;;;3.04;2.01;;;;;;;21.52;52.99;100682.14;;;;-57
2019/09/10 15:22:35;;;;;;;2.36;2.15;;;;;;;21.51;52.94;100680.83;;;;-61
2019/09/10 15:25:36;;;;;;;2.25;1.93;;;;;;;21.53;52.96;100685.61;;;;-55
2019/09/10 15:28:36;;;;;;;2.99;2.09;;;;;;;21.53;52.88;100686.12;;;;-56
2019/09/10 15:31:36;;;;;;;4.39;2.06;;;;;;;21.54;52.88;100689.85;;;;-49
2019/09/10 15:34:36;;;;;;;4.28;2.17;;;;;;;21.55;52.91;100687.70;;;;-51
2019/09/10 15:37:36;;;;;;;3.88;2.15;;;;;;;21.55;52.90;100687.24;;;;-47
2019/09/10 15:40:36;;;;;;;5.21;2.33;;;;;;;21.54;52.98;100691.20;;;;-49
2019/09/10 15:43:36;;;;;;;2.69;2.17;;;;;;;21.54;53.02;100697.95;;;;-46
2019/09/10 15:46:36;;;;;;;3.87;2.13;;;;;;;21.54;53.00;100698.02;;;;-52
2019/09/10 15:49:36;;;;;;;4.57;2.23;;;;;;;21.53;53.07;100702.63;;;;-53
2019/09/10 15:52:36;;;;;;;3.15;2.17;;;;;;;21.54;53.04;100709.12;;;;-49
2019/09/10 15:55:36;;;;;;;2.61;2.02;;;;;;;21.55;53.07;100719.84;;;;-50
2019/09/10 15:58:36;;;;;;;6.03;2.34;;;;;;;21.55;53.15;100725.39;;;;-51
2019/09/10 16:01:36;;;;;;;3.12;1.98;;;;;;;21.53;53.11;100727.89;;;;-51
2019/09/10 16:04:36;;;;;;;5.16;2.09;;;;;;;21.52;53.04;100728.53;;;;-51
2019/09/10 16:07:36;;;;;;;5.36;2.11;;;;;;;21.49;53.06;100732.27;;;;-51
2019/09/10 16:10:36;;;;;;;3.82;2.04;;;;;;;21.50;53.05;100732.14;;;;-51
2019/09/10 16:13:36;;;;;;;2.88;2.02;;;;;;;21.50;52.98;100739.53;;;;-50
2019/09/10 16:16:36;;;;;;;2.91;2.13;;;;;;;21.48;52.99;100740.63;;;;-51
2019/09/10 16:19:36;;;;;;;4.02;2.30;;;;;;;21.50;52.99;100739.37;;;;-49
2019/09/10 16:22:36;;;;;;;10.99;2.37;;;;;;;21.52;53.01;100737.94;;;;-51
2019/09/10 16:25:36;;;;;;;6.72;2.31;;;;;;;21.51;52.96;100739.41;;;;-48
2019/09/10 16:28:36;;;;;;;7.38;2.30;;;;;;;21.52;52.98;100745.06;;;;-48
2019/09/10 16:31:36;;;;;;;4.93;2.09;;;;;;;21.52;52.90;100745.91;;;;-47
2019/09/10 16:34:36;;;;;;;5.97;2.25;;;;;;;21.50;52.78;100743.50;;;;-48
2019/09/10 16:37:35;;;;;;;5.52;2.25;;;;;;;21.49;52.84;100748.67;;;;-48
2019/09/10 16:40:36;;;;;;;5.94;2.26;;;;;;;21.49;52.80;100747.56;;;;-48
2019/09/10 16:43:36;;;;;;;4.88;2.26;;;;;;;21.47;52.75;100744.45;;;;-48